Time;durP1;ratioP1;P1;durP2;ratioP2;P2;SDS_P1;SDS_P2;PMS_P1;PMS_P2;Temp;Humidity;BMP_temperature;BMP_pressure;BME280_temperature;BME280_humidity;BME280_pressure;Samples;Min_cycle;Max_cycle;Signal;HPM_P1;HPM_P2
2021/05/08 00:01:05;;;;;;;7.82;6.55;;;6.90;99.90;;;;;;5034005;28;20204;-73
2021/05/08 00:03:32;;;;;;;10.48;6.75;;;6.80;99.90;;;;;;5034467;28;20214;-73
2021/05/08 00:05:59;;;;;;;8.27;7.32;;;6.60;99.90;;;;;;5034685;28;20363;-73
2021/05/08 00:08:25;;;;;;;8.80;6.80;;;6.50;99.90;;;;;;5034734;28;20243;-74
2021/05/08 00:10:51;;;;;;;9.40;6.28;;;6.60;99.90;;;;;;5034304;28;20298;-73
2021/05/08 00:13:19;;;;;;;9.63;6.63;;;6.70;99.90;;;;;;5034472;28;20294;-72
2021/05/08 00:15:45;;;;;;;11.15;7.40;;;6.70;99.90;;;;;;5033661;28;20582;-73
2021/05/08 00:18:11;;;;;;;11.25;7.18;;;6.80;99.90;;;;;;5034106;28;20242;-72
2021/05/08 00:20:38;;;;;;;10.27;6.60;;;6.70;99.90;;;;;;5034499;28;20295;-73
2021/05/08 00:23:04;;;;;;;8.02;6.43;;;6.70;99.90;;;;;;5034574;28;20346;-74
2021/05/08 00:25:30;;;;;;;10.75;7.20;;;6.80;99.90;;;;;;5033989;28;20223;-73
2021/05/08 00:27:57;;;;;;;9.48;6.68;;;6.90;99.90;;;;;;5034155;28;20226;-73
2021/05/08 00:30:24;;;;;;;10.02;6.82;;;6.90;99.90;;;;;;5034289;28;20314;-73
2021/05/08 00:32:51;;;;;;;9.10;6.60;;;6.90;99.90;;;;;;5033643;28;20361;-73
2021/05/08 00:35:17;;;;;;;9.55;6.90;;;6.90;99.90;;;;;;5034261;28;20620;-73
2021/05/08 00:37:43;;;;;;;10.32;6.60;;;6.80;99.90;;;;;;5033469;28;20218;-73
2021/05/08 00:40:11;;;;;;;9.30;6.85;;;6.70;99.90;;;;;;5033722;28;20215;-73
2021/05/08 00:42:37;;;;;;;9.95;6.22;;;6.70;99.90;;;;;;5034003;28;20295;-73
2021/05/08 00:45:05;;;;;;;9.82;6.88;;;6.70;99.90;;;;;;5034176;28;20230;-73
2021/05/08 00:47:32;;;;;;;11.07;7.72;;;6.80;99.90;;;;;;5033471;28;20291;-72
2021/05/08 00:49:59;;;;;;;8.05;5.95;;;6.80;99.90;;;;;;5033552;28;20315;-73
2021/05/08 00:52:25;;;;;;;10.30;7.18;;;6.90;99.90;;;;;;5033759;28;20355;-73
2021/05/08 00:54:51;;;;;;;10.40;6.72;;;6.90;99.90;;;;;;5033648;28;20219;-73
2021/05/08 00:57:18;;;;;;;9.15;6.45;;;6.90;99.90;;;;;;5033684;28;20582;-73
2021/05/08 00:59:44;;;;;;;11.50;6.35;;;6.90;99.90;;;;;;5033981;28;20643;-73
2021/05/08 01:02:10;;;;;;;11.48;7.65;;;6.90;99.90;;;;;;5033994;28;20203;-73
2021/05/08 01:04:38;;;;;;;8.73;6.55;;;6.90;99.90;;;;;;5033906;28;20315;-73
2021/05/08 01:07:04;;;;;;;10.15;6.68;;;6.80;99.90;;;;;;5033189;28;20204;-74
2021/05/08 01:09:31;;;;;;;11.15;7.00;;;6.80;99.90;;;;;;5033410;28;20674;-73
2021/05/08 01:11:57;;;;;;;8.68;6.25;;;6.80;99.90;;;;;;5033562;28;20204;-74
2021/05/08 01:14:24;;;;;;;10.02;5.78;;;6.70;99.90;;;;;;5033406;28;20307;-73
2021/05/08 01:16:51;;;;;;;9.68;6.45;;;6.80;99.90;;;;;;5033159;28;20214;-73
2021/05/08 01:19:18;;;;;;;12.15;6.50;;;6.70;99.90;;;;;;5033846;28;20295;-74
2021/05/08 01:21:46;;;;;;;8.68;6.63;;;6.60;99.90;;;;;;5033523;28;20226;-73
2021/05/08 01:24:12;;;;;;;8.00;6.10;;;6.60;99.90;;;;;;5033432;28;20677;-72
2021/05/08 01:26:39;;;;;;;9.13;6.32;;;6.60;99.90;;;;;;5033502;28;20299;-73
2021/05/08 01:29:06;;;;;;;9.30;6.13;;;6.60;99.90;;;;;;5037649;28;20216;-73
2021/05/08 01:31:33;;;;;;;8.88;6.50;;;6.60;99.90;;;;;;5037284;28;20628;-73
2021/05/08 01:34:00;;;;;;;9.48;6.85;;;6.60;99.90;;;;;;5037617;28;20715;-74
2021/05/08 01:36:27;;;;;;;9.57;7.18;;;6.50;99.90;;;;;;5036958;28;20207;-73
2021/05/08 01:38:54;;;;;;;8.07;6.00;;;6.40;99.90;;;;;;5037404;28;20231;-73
2021/05/08 01:41:20;;;;;;;9.02;5.40;;;6.50;99.90;;;;;;5037460;28;20287;-73
2021/05/08 01:43:47;;;;;;;9.45;6.40;;;6.50;99.90;;;;;;5036895;28;20693;-73
2021/05/08 01:46:14;;;;;;;8.02;6.07;;;6.50;99.90;;;;;;5037022;28;20243;-73
2021/05/08 01:48:40;;;;;;;7.13;6.43;;;6.50;99.90;;;;;;5036707;28;20220;-73
2021/05/08 01:51:07;;;;;;;11.23;6.20;;;6.50;99.90;;;;;;5037002;28;20240;-73
2021/05/08 01:53:33;;;;;;;8.27;6.00;;;6.40;99.90;;;;;;5036909;28;20299;-73
2021/05/08 01:56:00;;;;;;;9.15;6.30;;;6.40;99.90;;;;;;5036975;28;20318;-73
2021/05/08 01:58:27;;;;;;;7.90;5.90;;;6.40;99.90;;;;;;5037243;28;20291;-73
2021/05/08 02:00:53;;;;;;;9.10;6.60;;;6.30;99.90;;;;;;5037221;28;20302;-74
2021/05/08 02:03:20;;;;;;;12.30;7.13;;;6.20;99.90;;;;;;5036573;28;20208;-73
2021/05/08 02:05:47;;;;;;;9.52;5.88;;;6.30;99.90;;;;;;5036587;28;20235;-72
2021/05/08 02:08:15;;;;;;;8.40;6.30;;;6.20;99.90;;;;;;5036588;28;20644;-72
2021/05/08 02:10:43;;;;;;;8.07;6.22;;;6.20;99.90;;;;;;5036798;28;20238;-72
2021/05/08 02:13:11;;;;;;;11.15;7.10;;;6.00;99.90;;;;;;5037002;28;20210;-73
2021/05/08 02:15:38;;;;;;;8.82;6.43;;;6.00;99.90;;;;;;5036625;28;20224;-73
2021/05/08 02:18:05;;;;;;;10.95;5.70;;;6.10;99.90;;;;;;5036220;28;20658;-73
2021/05/08 02:20:34;;;;;;;7.35;5.65;;;6.10;99.90;;;;;;5036203;28;20214;-73
2021/05/08 02:23:04;;;;;;;7.68;6.30;;;6.10;99.90;;;;;;5036228;28;20295;-73
2021/05/08 02:25:30;;;;;;;6.82;5.97;;;6.00;99.90;;;;;;5036199;28;20605;-72
2021/05/08 02:27:57;;;;;;;9.52;6.20;;;6.10;99.90;;;;;;5035841;28;20222;-73
2021/05/08 02:30:26;;;;;;;11.23;6.32;;;5.90;99.90;;;;;;5036215;28;20269;-73
2021/05/08 02:32:52;;;;;;;9.18;6.68;;;6.00;99.90;;;;;;5036036;28;20223;-73
2021/05/08 02:35:21;;;;;;;10.95;7.18;;;6.00;99.90;;;;;;5036509;28;20639;-72
2021/05/08 02:37:48;;;;;;;11.50;7.05;;;6.00;99.90;;;;;;5036434;28;20596;-73
2021/05/08 02:40:17;;;;;;;10.27;6.82;;;6.00;99.90;;;;;;5035725;28;20204;-72
2021/05/08 02:42:43;;;;;;;9.00;6.57;;;6.00;99.90;;;;;;5036441;28;20299;-73
2021/05/08 02:45:12;;;;;;;10.85;6.07;;;6.00;99.90;;;;;;5035867;28;20252;-73
2021/05/08 02:47:40;;;;;;;7.95;6.00;;;6.00;99.90;;;;;;5035973;28;20204;-72
2021/05/08 02:50:08;;;;;;;8.40;6.68;;;5.70;99.90;;;;;;5035867;28;20220;-73
2021/05/08 02:52:34;;;;;;;9.75;6.45;;;5.60;99.90;;;;;;5036117;28;20303;-73
2021/05/08 02:55:01;;;;;;;7.07;6.00;;;5.70;99.90;;;;;;5035668;28;20319;-74
2021/05/08 02:57:27;;;;;;;10.73;6.80;;;5.80;99.90;;;;;;5035695;28;20206;-73
2021/05/08 02:59:53;;;;;;;7.63;6.47;;;5.80;99.90;;;;;;5035871;28;20254;-73
2021/05/08 03:02:20;;;;;;;9.90;6.72;;;5.80;99.90;;;;;;5035781;28;20368;-73
2021/05/08 03:04:47;;;;;;;9.65;6.57;;;5.90;99.90;;;;;;5035558;28;20258;-73
2021/05/08 03:07:13;;;;;;;12.00;7.22;;;5.80;99.90;;;;;;5035807;28;20224;-73
2021/05/08 03:09:40;;;;;;;8.23;5.55;;;5.90;99.90;;;;;;5035938;28;20571;-73
2021/05/08 03:12:08;;;;;;;9.68;6.45;;;5.80;99.90;;;;;;5035306;28;20303;-73
2021/05/08 03:14:34;;;;;;;8.35;6.00;;;5.90;99.90;;;;;;5035541;28;20246;-73
2021/05/08 03:17:00;;;;;;;8.60;6.65;;;5.90;99.90;;;;;;5035526;28;20299;-73
2021/05/08 03:19:27;;;;;;;7.75;6.20;;;6.00;99.90;;;;;;5035699;28;20554;-73
2021/05/08 03:21:54;;;;;;;9.57;5.85;;;6.00;99.90;;;;;;5035710;28;20677;-72
2021/05/08 03:24:20;;;;;;;10.90;7.20;;;6.00;99.90;;;;;;5035370;28;20220;-73
2021/05/08 03:26:47;;;;;;;7.97;6.10;;;5.90;99.90;;;;;;5035133;28;20205;-72
2021/05/08 03:29:13;;;;;;;8.00;6.25;;;5.90;99.90;;;;;;5035297;28;20259;-73
2021/05/08 03:31:39;;;;;;;6.85;5.22;;;5.90;99.90;;;;;;5034618;28;20762;-73
2021/05/08 03:34:06;;;;;;;10.18;5.72;;;5.90;99.90;;;;;;5035354;28;20251;-73
2021/05/08 03:36:32;;;;;;;7.15;5.65;;;5.90;99.90;;;;;;5034887;28;20286;-73
2021/05/08 03:38:59;;;;;;;9.68;5.80;;;5.90;99.90;;;;;;5035407;28;20200;-72
2021/05/08 03:41:25;;;;;;;9.15;6.00;;;5.80;99.90;;;;;;5035021;28;20204;-73
2021/05/08 03:43:52;;;;;;;12.25;6.15;;;5.90;99.90;;;;;;5034996;28;20347;-72
2021/05/08 03:46:18;;;;;;;10.20;6.80;;;5.90;99.90;;;;;;5034842;28;20330;-73
2021/05/08 03:48:46;;;;;;;9.93;6.05;;;5.80;99.90;;;;;;5035113;28;20318;-72
2021/05/08 03:51:12;;;;;;;8.57;6.30;;;5.70;99.90;;;;;;5034188;28;20227;-73
2021/05/08 03:53:38;;;;;;;11.15;6.03;;;5.80;99.90;;;;;;5034678;28;20291;-73
2021/05/08 03:56:07;;;;;;;10.80;6.55;;;5.70;99.90;;;;;;5034347;28;20260;-72
2021/05/08 03:58:33;;;;;;;8.73;6.28;;;5.50;99.90;;;;;;5034796;28;20547;-72
2021/05/08 04:01:00;;;;;;;9.30;6.65;;;5.40;99.90;;;;;;5034841;28;20214;-73
2021/05/08 04:03:27;;;;;;;8.57;5.90;;;5.40;99.90;;;;;;5034791;28;20262;-72
2021/05/08 04:05:53;;;;;;;7.43;6.40;;;5.50;99.90;;;;;;5034526;28;20319;-73
2021/05/08 04:08:20;;;;;;;10.40;7.00;;;5.40;99.90;;;;;;5034402;28;20315;-73
2021/05/08 04:10:47;;;;;;;11.50;6.13;;;5.40;99.90;;;;;;5034570;28;20294;-73
2021/05/08 04:13:14;;;;;;;9.18;6.20;;;5.40;99.90;;;;;;5034569;28;20208;-72
2021/05/08 04:15:41;;;;;;;9.02;6.40;;;5.40;99.90;;;;;;5034539;28;20227;-72
2021/05/08 04:18:07;;;;;;;6.93;5.68;;;5.40;99.90;;;;;;5034676;28;20299;-73
2021/05/08 04:20:34;;;;;;;8.38;5.63;;;5.20;99.90;;;;;;5034652;28;20705;-73
2021/05/08 04:23:00;;;;;;;11.15;7.05;;;5.10;99.90;;;;;;5034286;28;20299;-72
2021/05/08 04:25:28;;;;;;;12.18;6.38;;;5.20;99.90;;;;;;5034211;28;20315;-73
2021/05/08 04:27:54;;;;;;;9.20;5.47;;;5.20;99.90;;;;;;5034361;28;20289;-72
2021/05/08 04:30:22;;;;;;;11.23;6.15;;;5.40;99.90;;;;;;5034226;28;20269;-73
2021/05/08 04:32:49;;;;;;;7.50;6.18;;;5.50;99.90;;;;;;5034281;28;20556;-73
2021/05/08 04:35:16;;;;;;;9.77;6.18;;;5.40;99.90;;;;;;5034383;28;20594;-73
2021/05/08 04:37:42;;;;;;;8.30;5.80;;;5.50;99.90;;;;;;5033923;28;20299;-73
2021/05/08 04:40:10;;;;;;;8.05;6.00;;;5.60;99.90;;;;;;5033906;28;20290;-73
2021/05/08 04:42:36;;;;;;;9.60;6.82;;;5.60;99.90;;;;;;5034115;28;20200;-73
2021/05/08 04:45:03;;;;;;;6.95;5.95;;;5.60;99.90;;;;;;5033737;28;20389;-73
2021/05/08 04:47:30;;;;;;;8.63;5.88;;;5.60;99.90;;;;;;5034135;28;20295;-73
2021/05/08 04:49:59;;;;;;;9.43;6.55;;;5.70;99.90;;;;;;5033721;28;20223;-73
2021/05/08 04:52:26;;;;;;;9.32;6.30;;;5.60;99.90;;;;;;5033900;28;20586;-73
2021/05/08 04:54:52;;;;;;;13.00;7.40;;;5.60;99.90;;;;;;5033877;28;20319;-73
2021/05/08 04:57:19;;;;;;;10.93;6.60;;;5.70;99.90;;;;;;5033665;28;20415;-73
2021/05/08 04:59:45;;;;;;;8.70;6.28;;;5.70;99.90;;;;;;5034016;28;20287;-73
2021/05/08 05:02:12;;;;;;;9.45;5.75;;;5.80;99.90;;;;;;5033746;28;20295;-74
2021/05/08 05:04:39;;;;;;;9.90;6.70;;;5.80;99.90;;;;;;5033703;28;20310;-73
2021/05/08 05:07:05;;;;;;;9.25;6.35;;;5.80;99.90;;;;;;5033634;28;20230;-72
2021/05/08 05:09:33;;;;;;;10.18;6.50;;;5.90;99.90;;;;;;5033601;28;20224;-73
2021/05/08 05:11:59;;;;;;;10.60;7.35;;;5.90;99.90;;;;;;5033875;28;20558;-73
2021/05/08 05:14:27;;;;;;;9.27;6.55;;;5.90;99.90;;;;;;5033690;28;20659;-73
2021/05/08 05:16:53;;;;;;;9.13;6.85;;;5.90;99.90;;;;;;5033297;28;20246;-73
2021/05/08 05:19:20;;;;;;;10.93;7.28;;;5.80;99.90;;;;;;5033458;28;20253;-73
2021/05/08 05:21:47;;;;;;;13.00;7.45;;;5.90;99.90;;;;;;5033456;28;20295;-72
2021/05/08 05:24:13;;;;;;;10.70;6.63;;;5.90;99.90;;;;;;5033217;28;20220;-72
2021/05/08 05:26:40;;;;;;;9.93;6.13;;;5.90;99.90;;;;;;5033412;28;20238;-72
2021/05/08 05:29:09;;;;;;;8.95;6.72;;;6.10;99.90;;;;;;5033749;28;20306;-73
2021/05/08 05:31:36;;;;;;;8.65;6.25;;;6.20;99.90;;;;;;5033285;28;20226;-72
2021/05/08 05:34:02;;;;;;;9.40;6.78;;;6.20;99.90;;;;;;5033358;28;20219;-72
2021/05/08 05:36:29;;;;;;;10.38;6.88;;;6.30;99.90;;;;;;5033369;28;20261;-73
2021/05/08 05:38:56;;;;;;;8.45;6.25;;;6.40;99.90;;;;;;5033635;28;20203;-73
2021/05/08 05:41:22;;;;;;;7.55;6.30;;;6.40;99.90;;;;;;5033682;28;20598;-73
2021/05/08 05:43:49;;;;;;;8.65;6.78;;;6.60;99.90;;;;;;5032978;28;20215;-73
2021/05/08 05:46:15;;;;;;;9.82;6.90;;;6.50;99.90;;;;;;5033126;28;20294;-73
2021/05/08 05:48:41;;;;;;;6.25;5.43;;;6.50;99.90;;;;;;5033252;28;20224;-72
2021/05/08 05:51:08;;;;;;;9.10;6.43;;;6.50;99.90;;;;;;5033261;28;20247;-73
2021/05/08 05:53:35;;;;;;;8.25;5.90;;;6.50;99.90;;;;;;5033488;28;20204;-73
2021/05/08 05:56:02;;;;;;;11.20;6.63;;;6.50;99.90;;;;;;5033311;28;20224;-73
2021/05/08 05:58:28;;;;;;;9.68;5.95;;;6.40;99.90;;;;;;5033517;28;20707;-72
2021/05/08 06:00:54;;;;;;;9.15;5.53;;;6.40;99.90;;;;;;5033170;28;20269;-73
2021/05/08 06:03:22;;;;;;;9.50;6.30;;;6.50;99.90;;;;;;5033212;28;20254;-73
2021/05/08 06:05:48;;;;;;;6.90;5.90;;;6.50;99.90;;;;;;5033078;28;20311;-73
2021/05/08 06:08:14;;;;;;;9.88;6.82;;;6.70;99.90;;;;;;5025416;28;20235;-73
2021/05/08 06:10:41;;;;;;;10.07;6.97;;;6.80;99.90;;;;;;5030642;28;20254;-74
2021/05/08 06:13:08;;;;;;;9.27;6.10;;;6.90;99.90;;;;;;5031815;28;20287;-73
2021/05/08 06:15:34;;;;;;;7.80;6.30;;;7.00;99.90;;;;;;5034269;28;20262;-73
2021/05/08 06:18:01;;;;;;;9.57;6.10;;;7.20;99.90;;;;;;5035432;28;20250;-73
2021/05/08 06:20:27;;;;;;;7.00;5.38;;;7.30;99.90;;;;;;5035003;28;20200;-73
2021/05/08 06:22:54;;;;;;;8.90;6.00;;;7.40;99.90;;;;;;5034808;28;20295;-73
2021/05/08 06:25:21;;;;;;;8.63;5.97;;;7.40;99.90;;;;;;5034840;28;20293;-74
2021/05/08 06:27:47;;;;;;;9.93;6.60;;;7.40;99.90;;;;;;5035007;28;20582;-73
2021/05/08 06:30:15;;;;;;;9.48;7.13;;;7.40;99.90;;;;;;5034911;28;20227;-72
2021/05/08 06:32:42;;;;;;;9.25;7.25;;;7.50;99.90;;;;;;5034640;28;20617;-73
2021/05/08 06:35:09;;;;;;;10.82;6.72;;;7.60;99.90;;;;;;5034755;28;20723;-73
2021/05/08 06:37:35;;;;;;;9.00;6.72;;;7.80;99.90;;;;;;5034873;28;20674;-72
2021/05/08 06:40:01;;;;;;;7.85;6.63;;;7.80;99.90;;;;;;5034776;28;20287;-74
2021/05/08 06:42:28;;;;;;;7.70;6.60;;;7.90;99.90;;;;;;5034473;28;20216;-73
2021/05/08 06:44:54;;;;;;;10.20;6.30;;;7.90;99.90;;;;;;5034748;28;20310;-73
2021/05/08 06:47:22;;;;;;;9.95;6.40;;;8.10;99.90;;;;;;5034647;28;20295;-73
2021/05/08 06:49:48;;;;;;;8.05;6.22;;;8.00;99.90;;;;;;5034554;28;20315;-72
2021/05/08 06:52:14;;;;;;;8.85;6.13;;;8.10;99.90;;;;;;5034334;28;20200;-73
2021/05/08 06:54:40;;;;;;;9.30;6.22;;;8.20;99.90;;;;;;5034354;28;20246;-73
2021/05/08 06:57:07;;;;;;;8.68;6.07;;;8.30;99.90;;;;;;5034321;28;20750;-73
2021/05/08 06:59:33;;;;;;;8.10;6.40;;;8.40;99.90;;;;;;5034237;28;20735;-74
2021/05/08 07:02:00;;;;;;;8.95;6.43;;;8.60;99.90;;;;;;5034407;28;20296;-73
2021/05/08 07:04:27;;;;;;;6.50;5.40;;;8.80;99.90;;;;;;5034225;28;20319;-74
2021/05/08 07:06:53;;;;;;;7.35;4.50;;;8.90;99.90;;;;;;5034343;28;20298;-76
2021/05/08 07:09:20;;;;;;;5.20;4.47;;;9.10;99.90;;;;;;5034096;28;20252;-77
2021/05/08 07:11:46;;;;;;;4.10;3.70;;;9.30;99.90;;;;;;5034070;28;20210;-76
2021/05/08 07:14:12;;;;;;;5.05;3.60;;;9.50;99.90;;;;;;5034389;28;20646;-76
2021/05/08 07:16:39;;;;;;;6.22;3.55;;;9.70;99.90;;;;;;5033972;28;20204;-77
2021/05/08 07:19:05;;;;;;;4.25;3.63;;;9.90;99.90;;;;;;5034179;28;20569;-74
2021/05/08 07:21:32;;;;;;;5.60;3.70;;;10.00;99.90;;;;;;5033983;28;20734;-72
2021/05/08 07:23:58;;;;;;;4.15;3.15;;;10.10;99.70;;;;;;5033834;28;20566;-77
2021/05/08 07:26:25;;;;;;;4.00;3.40;;;10.30;99.90;;;;;;5033900;28;20211;-76
2021/05/08 07:28:51;;;;;;;5.07;3.22;;;10.50;99.80;;;;;;5033969;28;20220;-76
2021/05/08 07:31:17;;;;;;;3.97;3.28;;;10.70;99.90;;;;;;5033749;28;20350;-76
2021/05/08 07:33:44;;;;;;;6.13;3.83;;;10.80;99.30;;;;;;5034566;28;20258;-78
2021/05/08 07:36:10;;;;;;;4.32;3.30;;;10.90;97.80;;;;;;5034694;28;20820;-78
2021/05/08 07:38:37;;;;;;;3.67;3.38;;;11.10;97.50;;;;;;5034731;28;20301;-75
2021/05/08 07:41:04;;;;;;;3.80;3.30;;;11.40;96.70;;;;;;5035071;28;20287;-75
2021/05/08 07:43:30;;;;;;;2.70;2.50;;;11.70;94.90;;;;;;5035128;28;20294;-76
2021/05/08 07:45:56;;;;;;;4.70;3.95;;;12.20;94.10;;;;;;5034603;28;20757;-76
2021/05/08 07:48:23;;;;;;;6.60;4.45;;;12.80;91.80;;;;;;5035125;28;20208;-76
2021/05/08 07:50:49;;;;;;;4.40;3.30;;;13.50;90.70;;;;;;5034525;28;20744;-75
2021/05/08 07:53:15;;;;;;;7.35;4.13;;;14.20;91.30;;;;;;5034773;28;20292;-76
2021/05/08 07:55:42;;;;;;;17.58;9.18;;;15.00;84.80;;;;;;5034493;28;20284;-76
2021/05/08 07:58:09;;;;;;;9.65;4.15;;;15.90;78.20;;;;;;5034436;28;20294;-76
2021/05/08 08:00:35;;;;;;;4.40;3.50;;;16.80;72.40;;;;;;5034557;28;20204;-76
2021/05/08 08:03:02;;;;;;;4.68;3.50;;;17.90;70.70;;;;;;5034372;28;20199;-76
2021/05/08 08:05:29;;;;;;;4.87;3.90;;;18.90;65.50;;;;;;5034146;28;20259;-76
2021/05/08 08:07:56;;;;;;;4.87;3.70;;;19.90;59.30;;;;;;5034102;28;20446;-76
2021/05/08 08:10:23;;;;;;;4.73;3.30;;;20.90;56.00;;;;;;5034093;28;20532;-76
2021/05/08 08:12:50;;;;;;;4.00;3.50;;;22.10;51.90;;;;;;5034352;28;20512;-76
2021/05/08 08:15:16;;;;;;;3.20;2.90;;;23.00;49.20;;;;;;5034084;28;20554;-77
2021/05/08 08:17:43;;;;;;;4.43;2.93;;;24.40;47.00;;;;;;5034021;28;20449;-77
2021/05/08 08:20:12;;;;;;;2.60;2.40;;;25.20;47.10;;;;;;5034094;28;20439;-77
2021/05/08 08:22:39;;;;;;;3.00;2.70;;;26.80;44.70;;;;;;5034141;28;20448;-77
2021/05/08 08:25:07;;;;;;;2.93;2.73;;;28.40;39.30;;;;;;5034117;28;20558;-77
2021/05/08 08:27:33;;;;;;;2.77;2.57;;;29.20;35.30;;;;;;5033774;28;20832;-77
2021/05/08 08:30:00;;;;;;;2.60;2.40;;;29.80;34.30;;;;;;5033999;28;20552;-77
2021/05/08 08:32:27;;;;;;;2.90;2.70;;;30.00;34.30;;;;;;5033703;28;20459;-77
2021/05/08 08:34:53;;;;;;;2.53;2.33;;;30.40;34.30;;;;;;5033799;28;20553;-77
2021/05/08 08:37:19;;;;;;;3.43;2.67;;;30.60;33.30;;;;;;5032993;28;20986;-77
2021/05/08 08:39:46;;;;;;;3.23;2.90;;;30.80;32.30;;;;;;5033935;28;20439;-77
2021/05/08 08:42:12;;;;;;;3.20;3.00;;;30.60;31.90;;;;;;5033732;28;20531;-77
2021/05/08 08:44:39;;;;;;;3.10;2.80;;;29.50;31.50;;;;;;5033689;28;20465;-77
2021/05/08 08:47:27;;;;;;;3.37;3.07;;;28.20;32.20;;;;;;5033689;28;20545;-77
2021/05/08 08:49:58;;;;;;;3.07;2.73;;;27.30;32.80;;;;;;5033814;28;20852;-77
2021/05/08 08:52:24;;;;;;;3.13;2.83;;;26.50;35.10;;;;;;5033584;28;20482;-77
2021/05/08 08:54:52;;;;;;;3.00;2.80;;;27.30;35.20;;;;;;5033596;28;20553;-77
2021/05/08 08:57:24;;;;;;;2.97;2.77;;;28.10;34.20;;;;;;5033476;28;20447;-77
2021/05/08 08:59:51;;;;;;;8.00;7.30;;;28.30;34.40;;;;;;5033437;28;20485;-77
2021/05/08 09:02:19;;;;;;;2.10;2.00;;;28.60;33.30;;;;;;5033614;28;20792;-77
2021/05/08 09:04:45;;;;;;;2.17;2.07;;;28.00;31.50;;;;;;5033522;28;20564;-77
2021/05/08 09:07:12;;;;;;;2.03;1.93;;;27.70;31.80;;;;;;5033272;28;20537;-77
2021/05/08 09:09:39;;;;;;;2.20;2.10;;;28.00;32.50;;;;;;5033552;28;20527;-77
2021/05/08 09:12:12;;;;;;;7.17;2.97;;;27.40;32.30;;;;;;5033462;28;20454;-77
2021/05/08 09:14:39;;;;;;;2.43;2.23;;;26.40;33.40;;;;;;5033974;28;20528;-76
2021/05/08 09:17:10;;;;;;;2.77;2.57;;;25.00;34.50;;;;;;5033319;28;20595;-77
2021/05/08 09:19:39;;;;;;;2.40;2.20;;;24.70;36.90;;;;;;5033233;28;20481;-77
2021/05/08 09:22:27;;;;;;;3.50;2.43;;;24.30;37.00;;;;;;5033294;28;20444;-77
2021/05/08 09:24:54;;;;;;;12.13;7.97;;;23.50;37.30;;;;;;5033157;28;20462;-77
2021/05/08 09:27:39;;;;;;;3.60;3.30;;;22.80;40.20;;;;;;5033210;28;20545;-77
2021/05/08 09:30:08;;;;;;;3.23;2.67;;;22.10;40.30;;;;;;5033403;28;20446;-76
2021/05/08 09:32:38;;;;;;;2.43;2.30;;;21.60;40.80;;;;;;5033196;28;20503;-76
2021/05/08 09:35:09;;;;;;;2.73;2.53;;;21.30;42.30;;;;;;5033055;28;20476;-76
2021/05/08 09:37:36;;;;;;;2.87;2.67;;;20.80;43.20;;;;;;5032897;28;20438;-76
2021/05/08 09:40:22;;;;;;;2.80;2.60;;;20.60;44.40;;;;;;5033189;28;20562;-76
2021/05/08 09:42:51;;;;;;;2.77;2.47;;;20.40;43.60;;;;;;5033274;28;20445;-76
2021/05/08 09:45:18;;;;;;;3.00;2.80;;;20.40;44.80;;;;;;5033085;28;20549;-77
2021/05/08 09:47:44;;;;;;;2.50;2.30;;;20.50;44.00;;;;;;5033255;28;20994;-76
2021/05/08 09:50:13;;;;;;;2.53;2.33;;;20.50;43.00;;;;;;5037078;28;20878;-76
2021/05/08 09:52:44;;;;;;;2.37;2.17;;;20.20;45.10;;;;;;5036937;28;20451;-76
2021/05/08 09:55:11;;;;;;;2.60;2.40;;;20.00;44.10;;;;;;5036563;28;20489;-76
2021/05/08 09:57:37;;;;;;;2.50;2.27;;;19.90;45.30;;;;;;5037173;28;20534;-76
2021/05/08 10:00:05;;;;;;;7.40;4.47;;;20.10;46.50;;;;;;5036632;28;20479;-76
2021/05/08 10:02:32;;;;;;;7.00;5.37;;;20.30;43.90;;;;;;5036788;28;20535;-76
2021/05/08 10:04:59;;;;;;;3.53;2.53;;;20.60;43.80;;;;;;5036767;28;20831;-76
2021/05/08 10:07:28;;;;;;;3.50;2.90;;;20.90;43.80;;;;;;5036561;28;20450;-77
2021/05/08 10:09:57;;;;;;;2.60;2.40;;;21.40;43.50;;;;;;5036519;28;20443;-76
2021/05/08 10:12:24;;;;;;;2.43;2.23;;;22.20;44.60;;;;;;5036598;28;20493;-77
2021/05/08 10:14:52;;;;;;;2.70;2.50;;;23.40;41.20;;;;;;5036369;28;20469;-76
2021/05/08 10:17:20;;;;;;;2.97;2.67;;;24.60;41.30;;;;;;5036174;28;20533;-77
2021/05/08 10:19:47;;;;;;;2.63;2.43;;;25.60;37.40;;;;;;5036346;28;20566;-77
2021/05/08 10:22:15;;;;;;;2.47;2.27;;;26.70;36.60;;;;;;5036319;28;20534;-77
2021/05/08 10:24:43;;;;;;;2.60;2.40;;;27.50;35.30;;;;;;5036350;28;20575;-77
2021/05/08 10:27:10;;;;;;;2.60;2.40;;;28.00;33.40;;;;;;5036293;28;20533;-74
2021/05/08 10:29:39;;;;;;;3.10;2.50;;;29.10;34.60;;;;;;5036331;28;20581;-74
2021/05/08 10:32:07;;;;;;;2.27;2.17;;;30.50;31.40;;;;;;5036087;28;20518;-77
2021/05/08 10:34:35;;;;;;;2.27;2.07;;;30.70;29.20;;;;;;5035990;28;20541;-77
2021/05/08 10:37:09;;;;;;;2.60;2.40;;;30.50;29.50;;;;;;5035916;28;20936;-77
2021/05/08 10:39:54;;;;;;;2.70;2.20;;;31.10;30.20;;;;;;5036068;28;20484;-77
2021/05/08 10:42:31;;;;;;;2.60;2.40;;;30.60;28.90;;;;;;5036161;28;21054;-77
2021/05/08 10:44:57;;;;;;;1.97;1.87;;;31.60;30.50;;;;;;5035983;28;20458;-78
2021/05/08 10:47:24;;;;;;;2.20;2.00;;;32.10;28.20;;;;;;5035692;28;20457;-77
2021/05/08 10:50:21;;;;;;;2.23;2.13;;;30.80;27.80;;;;;;5035954;28;20443;-77
2021/05/08 10:53:06;;;;;;;3.10;1.93;;;29.90;29.90;;;;;;5035677;28;20521;-77
2021/05/08 10:55:50;;;;;;;2.27;2.07;;;28.70;32.30;;;;;;5035965;28;20463;-77
2021/05/08 10:58:28;;;;;;;3.53;1.93;;;28.30;32.50;;;;;;5035770;28;20448;-77
2021/05/08 11:00:56;;;;;;;2.20;2.10;;;27.70;32.80;;;;;;5035038;28;20486;-77
2021/05/08 11:03:25;;;;;;;2.43;2.23;;;26.40;32.70;;;;;;5036043;28;20446;-77
2021/05/08 11:05:54;;;;;;;2.13;1.93;;;25.80;35.30;;;;;;5035171;28;20467;-76
2021/05/08 11:08:48;;;;;;;2.27;2.07;;;25.00;35.50;;;;;;5035466;28;20454;-77
2021/05/08 11:11:18;;;;;;;1.97;1.87;;;24.10;36.50;;;;;;4989497;28;20451;-77
2021/05/08 11:13:56;;;;;;;2.07;1.70;;;23.60;36.90;;;;;;5035573;28;20435;-77
2021/05/08 11:16:26;;;;;;;4.27;3.40;;;22.70;36.80;;;;;;5035422;28;20884;-77
2021/05/08 11:18:54;;;;;;;2.33;2.13;;;22.10;38.00;;;;;;5035310;28;20481;-77
2021/05/08 11:22:04;;;;;;;2.73;2.30;;;22.10;38.80;;;;;;5035306;28;20451;-76
2021/05/08 11:24:39;;;;;;;4.43;1.93;;;22.10;39.30;;;;;;5035100;28;20964;-76
2021/05/08 11:27:25;;;;;;;2.60;1.80;;;22.00;39.20;;;;;;5035099;28;20521;-76
2021/05/08 11:29:51;;;;;;;2.47;2.20;;;22.00;40.60;;;;;;5035167;28;20442;-76
2021/05/08 11:32:18;;;;;;;1.90;1.80;;;21.70;39.70;;;;;;5034917;28;20836;-76
2021/05/08 11:34:45;;;;;;;2.00;1.90;;;21.20;37.30;;;;;;5034950;28;20547;-76
2021/05/08 11:37:14;;;;;;;2.10;2.00;;;21.10;40.40;;;;;;5034883;28;20453;-76
2021/05/08 11:39:42;;;;;;;2.00;1.90;;;21.00;39.70;;;;;;5034917;28;20478;-76
2021/05/08 11:42:13;;;;;;;2.30;1.53;;;21.00;37.80;;;;;;5034876;28;20995;-76
2021/05/08 11:44:42;;;;;;;2.07;1.97;;;21.00;37.80;;;;;;5034869;28;20520;-76
2021/05/08 11:49:55;;;;;;;2.30;2.10;;;21.10;39.50;;;;;;5034966;28;20955;-77
2021/05/08 11:52:32;;;;;;;2.00;1.90;;;21.10;37.90;;;;;;5034817;28;20480;-76
2021/05/08 11:54:58;;;;;;;2.23;2.10;;;21.20;36.00;;;;;;5034590;28;20496;-75
2021/05/08 11:57:24;;;;;;;2.10;1.90;;;20.90;36.90;;;;;;5034412;28;20532;-76
2021/05/08 11:59:51;;;;;;;1.90;1.80;;;20.70;37.50;;;;;;5034456;28;20521;-76
2021/05/08 12:02:19;;;;;;;2.20;2.00;;;20.60;38.60;;;;;;5034498;28;20477;-76
2021/05/08 12:04:47;;;;;;;2.30;1.90;;;20.40;38.60;;;;;;5034108;28;20520;-76
2021/05/08 12:07:14;;;;;;;2.20;2.00;;;20.40;39.10;;;;;;5034223;28;20540;-76
2021/05/08 12:09:40;;;;;;;2.33;1.90;;;20.50;40.40;;;;;;5034390;28;20540;-76
2021/05/08 12:12:07;;;;;;;1.93;1.80;;;20.70;39.80;;;;;;5033281;28;20537;-76
2021/05/08 12:14:44;;;;;;;1.70;1.60;;;21.00;39.60;;;;;;5034316;28;20881;-76
2021/05/08 12:17:11;;;;;;;1.80;1.70;;;21.00;40.30;;;;;;5034153;28;20450;-76
2021/05/08 12:19:39;;;;;;;1.80;1.70;;;21.10;41.00;;;;;;5034134;28;20576;-76
2021/05/08 12:22:06;;;;;;;2.70;1.90;;;21.10;39.90;;;;;;5034192;28;20556;-76
2021/05/08 12:24:33;;;;;;;1.90;1.80;;;21.10;38.90;;;;;;5034104;28;20508;-76
2021/05/08 12:27:00;;;;;;;2.93;1.97;;;21.20;39.10;;;;;;5033960;28;20534;-76
2021/05/08 12:29:26;;;;;;;1.93;1.83;;;21.20;39.20;;;;;;5034092;28;20801;-76
2021/05/08 12:31:52;;;;;;;1.90;1.80;;;21.20;39.00;;;;;;5033710;28;20457;-76
2021/05/08 12:34:21;;;;;;;3.53;3.13;;;21.10;38.50;;;;;;5033938;28;20547;-76
2021/05/08 12:37:02;;;;;;;2.00;1.90;;;20.90;40.00;;;;;;5033564;28;20947;-76
2021/05/08 12:39:29;;;;;;;2.37;2.23;;;20.90;39.30;;;;;;5033843;28;20481;-76
2021/05/08 12:41:57;;;;;;;3.40;2.07;;;20.70;39.90;;;;;;5033819;28;20444;-76
2021/05/08 12:44:33;;;;;;;4.30;3.13;;;20.50;40.10;;;;;;5033784;28;20565;-76
2021/05/08 12:47:03;;;;;;;7.00;5.20;;;20.50;41.20;;;;;;5033712;28;20488;-76
2021/05/08 12:49:32;;;;;;;2.30;2.10;;;20.50;40.30;;;;;;5034156;28;20441;-76
2021/05/08 12:52:18;;;;;;;2.50;2.30;;;20.60;40.70;;;;;;5033751;28;20500;-76
2021/05/08 12:54:50;;;;;;;1.77;1.67;;;20.60;39.70;;;;;;5033250;28;20466;-76
2021/05/08 12:57:16;;;;;;;2.20;2.10;;;20.60;39.90;;;;;;5033224;28;20436;-76